createdAt,value
2023-03-08T09:21:30.222Z,-10.83
2023-03-08T09:26:34.492Z,-10.72
2023-03-08T09:31:42.276Z,-10.48
2023-03-08T09:36:47.468Z,-10.55
2023-03-08T09:41:55.412Z,-10.20
2023-03-08T09:47:02.686Z,-9.96
2023-03-08T09:52:12.076Z,-10.43
2023-03-08T09:57:17.232Z,-10.49
2023-03-08T10:02:25.153Z,-10.52
2023-03-08T10:07:35.107Z,-10.24
2023-03-08T10:12:50.402Z,-10.15
2023-03-08T10:17:56.325Z,-9.86
2023-03-08T10:23:02.020Z,-9.66
2023-03-08T10:28:10.744Z,-9.40
2023-03-08T10:33:14.903Z,-9.22
2023-03-08T10:38:19.965Z,-9.27
2023-03-08T10:43:29.018Z,-9.04
2023-03-08T10:48:34.705Z,-9.08
2023-03-08T10:53:39.441Z,-9.33
2023-03-08T10:58:42.815Z,-9.07
2023-03-08T11:03:46.213Z,-8.83
2023-03-08T11:08:55.291Z,-8.44
2023-03-08T11:14:01.091Z,-8.24
2023-03-08T11:19:10.852Z,-8.60
2023-03-08T11:24:19.923Z,-8.82
2023-03-08T11:29:30.354Z,-9.32
2023-03-08T11:34:44.660Z,-9.52
2023-03-08T11:39:53.961Z,-9.41
2023-03-08T11:45:05.491Z,-9.22
2023-03-08T11:50:11.570Z,-9.20
2023-03-08T11:55:29.493Z,-9.30
2023-03-08T12:00:35.814Z,-9.26
2023-03-08T12:05:42.187Z,-9.63
2023-03-08T12:10:49.925Z,-9.70
2023-03-08T12:15:55.349Z,-9.42
2023-03-08T12:21:01.447Z,-9.55
2023-03-08T12:26:09.869Z,-9.42
2023-03-08T12:31:27.903Z,-9.17
2023-03-08T12:36:38.981Z,-9.21
2023-03-08T12:41:43.938Z,-8.92
2023-03-08T12:47:01.753Z,-9.77
2023-03-08T12:52:24.428Z,-9.42
2023-03-08T12:57:30.711Z,-9.33
2023-03-08T13:02:36.568Z,-9.28
2023-03-08T13:07:48.717Z,-9.48
2023-03-08T13:13:00.810Z,-9.41
2023-03-08T13:18:06.258Z,-9.32
2023-03-08T13:23:18.077Z,-9.57
2023-03-08T13:28:23.854Z,-9.97
2023-03-08T13:33:28.587Z,-9.86
2023-03-08T13:38:35.162Z,-9.89
2023-03-08T13:43:42.419Z,-10.16
2023-03-08T13:48:46.412Z,-10.41
2023-03-08T13:53:49.796Z,-10.35
2023-03-08T13:58:55.675Z,-10.73
2023-03-08T14:04:01.219Z,-10.55
2023-03-08T14:09:05.870Z,-10.46
2023-03-08T14:14:18.358Z,-10.42
2023-03-08T14:19:24.248Z,-10.56
2023-03-08T14:24:30.840Z,-10.74
2023-03-08T14:29:36.494Z,-11.28
2023-03-08T14:34:40.967Z,-11.56
2023-03-08T14:39:46.336Z,-11.50
2023-03-08T14:44:55.896Z,-11.52
2023-03-08T14:50:01.847Z,-11.58
2023-03-08T14:55:20.527Z,-11.56
2023-03-08T15:00:27.567Z,-11.65
2023-03-08T15:05:31.241Z,-11.87
2023-03-08T15:10:36.552Z,-12.16
2023-03-08T15:15:41.475Z,-12.28
2023-03-08T15:20:45.865Z,-12.35
2023-03-08T15:25:49.496Z,-12.29
2023-03-08T15:30:55.936Z,-12.50
2023-03-08T15:35:59.747Z,-12.61
2023-03-08T15:41:05.398Z,-12.65
2023-03-08T15:46:12.123Z,-12.70
2023-03-08T15:51:19.412Z,-12.83
2023-03-08T15:56:22.984Z,-12.94
2023-03-08T16:01:33.297Z,-13.01
2023-03-08T16:06:37.156Z,-13.07
2023-03-08T16:11:40.485Z,-13.34
2023-03-08T16:16:46.182Z,-13.46
2023-03-08T16:21:51.020Z,-13.55
2023-03-08T16:26:54.390Z,-13.49
2023-03-08T16:32:03.002Z,-13.57
2023-03-08T16:37:06.603Z,-13.67
2023-03-08T16:42:12.303Z,-13.61
2023-03-08T16:47:17.450Z,-13.63
2023-03-08T16:52:20.872Z,-13.77
2023-03-08T16:57:24.343Z,-13.81
2023-03-08T17:02:29.137Z,-13.91
2023-03-08T17:07:32.533Z,-14.10
2023-03-08T17:12:38.301Z,-14.00
2023-03-08T17:17:45.551Z,-14.07
2023-03-08T17:22:48.992Z,-14.13
2023-03-08T17:27:54.778Z,-14.16
2023-03-08T17:32:59.659Z,-14.11
2023-03-08T17:38:17.432Z,-14.19
2023-03-08T17:43:46.281Z,-14.21
2023-03-08T17:48:54.148Z,-14.27
2023-03-08T17:53:58.807Z,-14.32
2023-03-08T17:59:04.914Z,-14.31
2023-03-08T18:04:30.225Z,-14.38
2023-03-08T18:09:41.209Z,-14.53
2023-03-08T18:14:46.286Z,-14.56
2023-03-08T18:19:52.920Z,-14.59
2023-03-08T18:24:56.712Z,-14.65
2023-03-08T18:30:00.399Z,-14.79
2023-03-08T18:35:05.467Z,-14.82
2023-03-08T18:40:12.205Z,-14.66
2023-03-08T18:45:18.191Z,-14.76
2023-03-08T18:50:25.036Z,-14.53
2023-03-08T18:55:28.437Z,-14.67
2023-03-08T19:00:31.994Z,-14.83
2023-03-08T19:05:37.516Z,-14.65
2023-03-08T19:10:43.393Z,-14.61
2023-03-08T19:15:46.874Z,-14.70
2023-03-08T19:20:51.576Z,-14.64
2023-03-08T19:26:17.703Z,-14.70
2023-03-08T19:31:21.258Z,-14.80
2023-03-08T19:36:26.224Z,-14.84
2023-03-08T19:41:29.736Z,-14.88
2023-03-08T19:46:33.166Z,-14.91
2023-03-08T19:51:40.472Z,-14.94
2023-03-08T19:56:43.838Z,-14.93
2023-03-08T20:01:50.107Z,-14.89
2023-03-08T20:06:54.951Z,-14.99
2023-03-08T20:11:59.172Z,-15.07
2023-03-08T20:17:04.915Z,-15.05
2023-03-08T20:22:09.843Z,-15.11
2023-03-08T20:27:15.505Z,-15.08
2023-03-08T20:32:18.934Z,-14.93
2023-03-08T20:37:23.844Z,-14.98
2023-03-08T20:42:29.305Z,-15.06
2023-03-08T20:47:34.937Z,-15.24
2023-03-08T20:52:39.804Z,-15.13
2023-03-08T20:57:43.273Z,-15.06
2023-03-08T21:02:46.880Z,-15.20
2023-03-08T21:07:52.007Z,-15.10
2023-03-08T21:12:55.379Z,-15.10
2023-03-08T21:17:58.894Z,-15.13
2023-03-08T21:23:03.753Z,-15.30
2023-03-08T21:28:07.332Z,-15.26
2023-03-08T21:33:10.844Z,-15.24
2023-03-08T21:38:15.672Z,-15.23
2023-03-08T21:43:19.136Z,-15.23
2023-03-08T21:48:22.624Z,-15.22
2023-03-08T21:53:27.479Z,-15.27
2023-03-08T21:58:30.810Z,-15.14
2023-03-08T22:03:34.693Z,-15.24
2023-03-08T22:08:43.424Z,-15.44
2023-03-08T22:13:50.136Z,-15.34
2023-03-08T22:18:54.677Z,-15.18
2023-03-08T22:24:00.904Z,-15.21
2023-03-08T22:29:04.911Z,-15.23
2023-03-08T22:34:08.656Z,-15.25
2023-03-08T22:39:16.930Z,-15.34
